الصفحة الرئيسية
METAR-TAF:

METAR-TAF

مطار :

مطار جوادر الدولي

جوادر, باكستان

دائرة عرض: 25-13-59N, خط طول: 062-19-46E, ارتفاع: 29 متر

METAR: مفقودة

زمن: 04:53 (23:53 UTC)

توقعات

تاريخ ووقت الإصدار 53 دقيقة قبل الساعة 23:00UTC
التوقعات صالحة من25 الساعة 00 UTC إلى 25 الساعة 24 UTC
ريح 8 عقدة من الجنوب/الجنوب الغربي تتزايد حتى 18 عقدة
الرؤية: 4000 متر
العجاج
مؤقت
من 25 الساعة 00 UTC إلى 25 الساعة 04 UTC
ريح 3 عقدةمن اتجاهات متغيرة
الرؤية: 1500 متر
غيوم متفرقة على ارتفاع 2000 قدم
غشاء
من 25 الساعة 1800 UTC
ريح 7 عقدة من الجنوب الغربي
الرؤية: 3000 متر
دخان,

TAF: OPGD 242300Z 2500/2524 21008G18KT 4000 HZ NSC TEMPO 2500/2504 VRB03KT 1500 BR SCT020 FM251800 23007KT 3000 FU NSC

أرصاد الطقس والتوقعات من أكثر من 4000 مطار (تقارير الطقس للمطار METAR والتنبؤ بالطقس بالمطارTAF).

المحطات المتاحة هي النقط الصفراء والحمراء على الخريطة.

حرك المؤشر فوق النقطة لمعرفة اسم المحطة.

ثم انقر لمعرفة أرصاد وتوقعات الطقس.

لتغيير الخارطة: اضغط على الأزرار الخضراء مع رمز الصليب الأسود للتكبير. على الزر الأخضر مع شرطة للتصغير، أو على الأسهم الخضراء للخرائط المجاورة.


METAR-TAF: